RYR90TC LOWW-EDDK
Flight info
| Callsign | RYR90TC |
|---|---|
| Flight time | N/A |
| Altitude | 32000 |
| Route | BUWUT DCT DITIS DCT RAPET T843 DEMAB T842 EBANA T841 ERNEP ERNEP2V |
| Aircraft | B738/M-SDE2E3FGHIRWXY/LB1 |
Departure
| Time | 2026-05-06 19:35 |
|---|---|
| Airport | Vienna International Airport (LOWW) |
Arrival
| Time | N/A |
|---|---|
| Airport | Cologne Bonn Airport (EDDK) |
| Time | Latitude | Longitude | Altitude | Speed | Heading |
|---|---|---|---|---|---|
| 2026-05-06 18:14 | 48.11972 | 16.55846 | 622 ft | 0 kts | 294° |
| 2026-05-06 18:50 | 48.11970 | 16.55853 | 609 ft | 3 kts | 294° |
| 2026-05-06 18:50 | 48.11961 | 16.55890 | 623 ft | 4 kts | 280° |
| 2026-05-06 18:50 | 48.11960 | 16.55929 | 621 ft | 4 kts | 253° |
| 2026-05-06 18:50 | 48.11972 | 16.55957 | 626 ft | 2 kts | 205° |
| 2026-05-06 18:51 | 48.11977 | 16.55960 | 624 ft | 0 kts | 205° |
| 2026-05-06 18:56 | 48.11968 | 16.55954 | 618 ft | 3 kts | 205° |
| 2026-05-06 18:56 | 48.11951 | 16.55942 | 609 ft | 3 kts | 205° |
| 2026-05-06 18:57 | 48.11935 | 16.55931 | 609 ft | 3 kts | 205° |
| 2026-05-06 18:57 | 48.11920 | 16.55920 | 614 ft | 2 kts | 205° |
| 2026-05-06 18:57 | 48.11905 | 16.55909 | 620 ft | 2 kts | 206° |
| 2026-05-06 18:57 | 48.11890 | 16.55898 | 609 ft | 2 kts | 207° |
| 2026-05-06 18:58 | 48.11884 | 16.55894 | 616 ft | 0 kts | 206° |
| 2026-05-06 19:01 | 48.11878 | 16.55889 | 621 ft | 4 kts | 206° |
| 2026-05-06 19:01 | 48.11835 | 16.55858 | 609 ft | 8 kts | 205° |
| 2026-05-06 19:02 | 48.11780 | 16.55819 | 609 ft | 9 kts | 204° |
| 2026-05-06 19:02 | 48.11723 | 16.55762 | 613 ft | 10 kts | 237° |
| 2026-05-06 19:02 | 48.11733 | 16.55666 | 617 ft | 10 kts | 295° |
| 2026-05-06 19:02 | 48.11761 | 16.55577 | 623 ft | 9 kts | 296° |
| 2026-05-06 19:03 | 48.11790 | 16.55490 | 617 ft | 9 kts | 295° |
| 2026-05-06 19:03 | 48.11819 | 16.55400 | 622 ft | 10 kts | 296° |
| 2026-05-06 19:03 | 48.11850 | 16.55304 | 613 ft | 11 kts | 296° |
| 2026-05-06 19:03 | 48.11893 | 16.55174 | 615 ft | 18 kts | 296° |
| 2026-05-06 19:04 | 48.11954 | 16.54985 | 620 ft | 21 kts | 296° |
| 2026-05-06 19:04 | 48.12010 | 16.54815 | 612 ft | 17 kts | 296° |
| 2026-05-06 19:04 | 48.12059 | 16.54664 | 618 ft | 16 kts | 295° |
| 2026-05-06 19:04 | 48.12111 | 16.54502 | 614 ft | 20 kts | 295° |
| 2026-05-06 19:05 | 48.12181 | 16.54288 | 609 ft | 24 kts | 296° |
| 2026-05-06 19:05 | 48.12253 | 16.54069 | 622 ft | 23 kts | 295° |
| 2026-05-06 19:05 | 48.12320 | 16.53861 | 611 ft | 21 kts | 297° |
| 2026-05-06 19:05 | 48.12364 | 16.53728 | 609 ft | 8 kts | 296° |
| 2026-05-06 19:06 | 48.12369 | 16.53711 | 614 ft | 0 kts | 296° |
| 2026-05-06 19:06 | 48.12371 | 16.53705 | 612 ft | 2 kts | 295° |
| 2026-05-06 19:06 | 48.12378 | 16.53685 | 611 ft | 2 kts | 295° |
| 2026-05-06 19:06 | 48.12378 | 16.53682 | 612 ft | 0 kts | 295° |
| 2026-05-06 19:07 | 48.12387 | 16.53657 | 619 ft | 5 kts | 296° |
| 2026-05-06 19:08 | 48.12405 | 16.53600 | 617 ft | 7 kts | 295° |
| 2026-05-06 19:08 | 48.12424 | 16.53542 | 616 ft | 0 kts | 296° |
| 2026-05-06 19:12 | 48.12426 | 16.53534 | 609 ft | 4 kts | 292° |
| 2026-05-06 19:12 | 48.12424 | 16.53469 | 609 ft | 7 kts | 240° |
| 2026-05-06 19:13 | 48.12390 | 16.53433 | 613 ft | 4 kts | 204° |
| 2026-05-06 19:13 | 48.12386 | 16.53430 | 612 ft | 0 kts | 204° |
| 2026-05-06 19:22 | 48.12376 | 16.53423 | 609 ft | 4 kts | 204° |
| 2026-05-06 19:23 | 48.12345 | 16.53403 | 609 ft | 6 kts | 203° |
| 2026-05-06 19:23 | 48.12303 | 16.53377 | 619 ft | 7 kts | 202° |
| 2026-05-06 19:23 | 48.12264 | 16.53390 | 617 ft | 6 kts | 123° |
| 2026-05-06 19:23 | 48.12260 | 16.53404 | 609 ft | 0 kts | 115° |
| 2026-05-06 19:24 | 48.12256 | 16.53417 | 618 ft | 6 kts | 116° |
| 2026-05-06 19:24 | 48.12198 | 16.53592 | 617 ft | 42 kts | 116° |
| 2026-05-06 19:24 | 48.12099 | 16.53897 | 623 ft | 14 kts | 116° |
| 2026-05-06 19:25 | 48.12095 | 16.53972 | 615 ft | 6 kts | 52° |
| 2026-05-06 19:25 | 48.12138 | 16.53978 | 613 ft | 6 kts | 358° |
| 2026-05-06 19:25 | 48.12181 | 16.53994 | 615 ft | 6 kts | 30° |
| 2026-05-06 19:25 | 48.12213 | 16.54039 | 609 ft | 7 kts | 52° |
| 2026-05-06 19:26 | 48.12234 | 16.54099 | 617 ft | 1 kts | 52° |
| 2026-05-06 19:26 | 48.12242 | 16.54102 | 613 ft | 1 kts | 359° |
| 2026-05-06 19:26 | 48.12248 | 16.54090 | 624 ft | 2 kts | 296° |
| 2026-05-06 19:26 | 48.12263 | 16.54045 | 618 ft | 8 kts | 296° |
| 2026-05-06 19:27 | 48.12294 | 16.53944 | 614 ft | 12 kts | 295° |
| 2026-05-06 19:27 | 48.12330 | 16.53831 | 622 ft | 12 kts | 296° |
| 2026-05-06 19:27 | 48.12366 | 16.53721 | 618 ft | 12 kts | 295° |
| 2026-05-06 19:27 | 48.12385 | 16.53617 | 612 ft | 8 kts | 258° |
| 2026-05-06 19:28 | 48.12347 | 16.53567 | 609 ft | 4 kts | 205° |
| 2026-05-06 19:28 | 48.12343 | 16.53564 | 609 ft | 0 kts | 205° |
| 2026-05-06 19:30 | 48.12338 | 16.53561 | 618 ft | 3 kts | 205° |
| 2026-05-06 19:31 | 48.12312 | 16.53542 | 612 ft | 5 kts | 204° |
| 2026-05-06 19:31 | 48.12276 | 16.53516 | 620 ft | 6 kts | 206° |
| 2026-05-06 19:31 | 48.12216 | 16.53540 | 612 ft | 0 kts | 116° |
| 2026-05-06 19:34 | 48.12199 | 16.53591 | 617 ft | 27 kts | 116° |
| 2026-05-06 19:34 | 48.12010 | 16.54173 | 613 ft | 96 kts | 114° |
| 2026-05-06 19:34 | 48.11632 | 16.55320 | 618 ft | 151 kts | 117° |
| 2026-05-06 19:35 | 48.11171 | 16.56847 | 1090 ft | 162 kts | 121° |
| 2026-05-06 19:35 | 48.10685 | 16.58410 | 1796 ft | 169 kts | 126° |
| 2026-05-06 19:35 | 48.10168 | 16.60010 | 2455 ft | 177 kts | 128° |
| 2026-05-06 19:35 | 48.09679 | 16.61901 | 2777 ft | 214 kts | 106° |
| 2026-05-06 19:36 | 48.09957 | 16.64207 | 3228 ft | 241 kts | 66° |
| 2026-05-06 19:36 | 48.10921 | 16.66361 | 3606 ft | 261 kts | 60° |
| 2026-05-06 19:36 | 48.11930 | 16.68791 | 3820 ft | 289 kts | 62° |
| 2026-05-06 19:36 | 48.12968 | 16.71436 | 4499 ft | 298 kts | 63° |
| 2026-05-06 19:37 | 48.14008 | 16.74138 | 4938 ft | 302 kts | 63° |
| 2026-05-06 19:37 | 48.15072 | 16.76811 | 5070 ft | 300 kts | 55° |
| 2026-05-06 19:37 | 48.16660 | 16.78842 | 5096 ft | 305 kts | 24° |
| 2026-05-06 19:37 | 48.18696 | 16.79557 | 5159 ft | 301 kts | 356° |
| 2026-05-06 19:38 | 48.20744 | 16.79087 | 5729 ft | 297 kts | 342° |
| 2026-05-06 19:38 | 48.22726 | 16.78381 | 6814 ft | 288 kts | 341° |
| 2026-05-06 19:38 | 48.24679 | 16.77668 | 7626 ft | 291 kts | 341° |
| 2026-05-06 19:38 | 48.26662 | 16.76949 | 8404 ft | 294 kts | 342° |
| 2026-05-06 19:39 | 48.28661 | 16.76239 | 9218 ft | 296 kts | 342° |
| 2026-05-06 19:39 | 48.30655 | 16.75536 | 9965 ft | 301 kts | 343° |
| 2026-05-06 19:39 | 48.32710 | 16.74815 | 10607 ft | 306 kts | 343° |
| 2026-05-06 19:39 | 48.34805 | 16.73978 | 11037 ft | 320 kts | 334° |
| 2026-05-06 19:40 | 48.36860 | 16.72471 | 11213 ft | 339 kts | 327° |
| 2026-05-06 19:40 | 48.38992 | 16.70686 | 11387 ft | 361 kts | 327° |
| 2026-05-06 19:40 | 48.41248 | 16.68837 | 11613 ft | 380 kts | 328° |
| 2026-05-06 19:40 | 48.43457 | 16.66635 | 12098 ft | 382 kts | 311° |
| 2026-05-06 19:41 | 48.45031 | 16.63477 | 12760 ft | 375 kts | 291° |
| 2026-05-06 19:41 | 48.46009 | 16.59852 | 13492 ft | 374 kts | 286° |
| 2026-05-06 19:41 | 48.46902 | 16.56158 | 14118 ft | 376 kts | 285° |
| 2026-05-06 19:41 | 48.47787 | 16.52436 | 14749 ft | 379 kts | 285° |